createdAt,value
2023-02-02T00:01:04.579Z,1.20
2023-02-02T00:03:51.124Z,1.20
2023-02-02T00:06:37.705Z,1.10
2023-02-02T00:09:24.230Z,1.10
2023-02-02T00:12:10.791Z,1.20
2023-02-02T00:14:57.278Z,1.20
2023-02-02T00:17:43.790Z,1.30
2023-02-02T00:20:30.324Z,1.30
2023-02-02T00:23:17.891Z,1.30
2023-02-02T00:26:04.421Z,1.30
2023-02-02T00:28:50.982Z,1.20
2023-02-02T00:31:37.548Z,1.20
2023-02-02T00:34:24.093Z,1.10
2023-02-02T00:37:10.637Z,1.10
2023-02-02T00:39:57.180Z,1.10
2023-02-02T00:42:43.751Z,1.10
2023-02-02T00:45:30.310Z,1.10
2023-02-02T00:48:16.875Z,1.10
2023-02-02T00:51:03.448Z,1.10
2023-02-02T00:53:49.934Z,1.00
2023-02-02T00:56:36.500Z,1.00
2023-02-02T00:59:23.067Z,1.00
2023-02-02T01:02:09.614Z,1.00
2023-02-02T01:04:56.208Z,1.10
2023-02-02T01:07:42.740Z,1.10
2023-02-02T01:10:29.289Z,1.10
2023-02-02T01:13:15.814Z,1.30
2023-02-02T01:16:02.409Z,1.30
2023-02-02T01:18:48.998Z,1.40
2023-02-02T01:21:35.564Z,1.40
2023-02-02T01:24:22.090Z,1.40
2023-02-02T01:27:08.640Z,1.50
2023-02-02T01:29:55.164Z,1.40
2023-02-02T01:32:41.705Z,1.40
2023-02-02T01:35:28.180Z,1.30
2023-02-02T01:38:14.743Z,1.20
2023-02-02T01:41:01.268Z,1.20
2023-02-02T01:43:47.809Z,1.20
2023-02-02T01:46:34.399Z,1.10
2023-02-02T01:49:20.939Z,1.00
2023-02-02T01:52:07.494Z,1.00
2023-02-02T01:54:54.016Z,1.00
2023-02-02T01:57:40.544Z,1.10
2023-02-02T02:00:27.062Z,1.10
2023-02-02T02:03:13.778Z,1.10
2023-02-02T02:06:00.396Z,0.90
2023-02-02T02:08:47.080Z,1.00
2023-02-02T02:11:33.717Z,1.00
2023-02-02T02:14:20.389Z,1.10
2023-02-02T02:17:06.915Z,1.10
2023-02-02T02:19:53.483Z,1.20
2023-02-02T02:22:39.999Z,1.20
2023-02-02T02:25:26.794Z,1.20
2023-02-02T02:28:13.435Z,1.20
2023-02-02T02:30:59.984Z,1.20
2023-02-02T02:33:46.600Z,1.10
2023-02-02T02:36:33.136Z,1.00
2023-02-02T02:39:19.826Z,0.90
2023-02-02T02:42:06.369Z,1.00
2023-02-02T02:44:52.921Z,0.90
2023-02-02T02:47:39.477Z,0.90
2023-02-02T02:50:25.994Z,0.90
2023-02-02T02:53:12.529Z,0.90
2023-02-02T02:55:59.044Z,0.90
2023-02-02T02:58:45.598Z,0.90
2023-02-02T03:01:32.224Z,0.80
2023-02-02T03:04:19.142Z,0.80
2023-02-02T03:07:05.708Z,0.80
2023-02-02T03:09:52.259Z,0.80
2023-02-02T03:12:38.784Z,0.80
2023-02-02T03:15:25.551Z,0.80
2023-02-02T03:18:12.232Z,0.80
2023-02-02T03:20:58.800Z,0.80
2023-02-02T03:23:45.443Z,0.80
2023-02-02T03:26:32.086Z,0.80
2023-02-02T03:29:18.641Z,0.80
2023-02-02T03:32:05.189Z,0.90
2023-02-02T03:34:51.759Z,0.90
2023-02-02T03:37:38.284Z,0.90
2023-02-02T03:40:24.839Z,0.90
2023-02-02T03:43:11.447Z,0.90
2023-02-02T03:45:58.007Z,0.90
2023-02-02T03:48:44.537Z,0.80
2023-02-02T03:51:31.098Z,0.80
2023-02-02T03:54:17.625Z,0.90
2023-02-02T03:57:04.189Z,0.90
2023-02-02T03:59:50.724Z,0.90
2023-02-02T04:02:37.284Z,0.80
2023-02-02T04:05:25.133Z,0.80
2023-02-02T04:08:11.870Z,0.80
2023-02-02T04:10:58.429Z,0.80
2023-02-02T04:13:44.941Z,0.80
2023-02-02T04:16:31.564Z,0.90
2023-02-02T04:19:18.120Z,0.90
2023-02-02T04:22:04.691Z,0.90
2023-02-02T04:24:51.232Z,0.90
2023-02-02T04:27:37.767Z,0.90
2023-02-02T04:30:24.293Z,1.00
2023-02-02T04:33:10.870Z,1.00
2023-02-02T04:35:57.432Z,1.00
2023-02-02T04:38:44.048Z,1.10
2023-02-02T04:41:30.541Z,1.10
2023-02-02T04:44:17.093Z,1.10
2023-02-02T04:47:03.637Z,1.20
2023-02-02T04:49:50.221Z,1.20
2023-02-02T04:52:36.759Z,1.10
2023-02-02T04:55:23.652Z,1.00
2023-02-02T04:58:11.446Z,0.90
2023-02-02T05:00:58.020Z,0.90
2023-02-02T05:03:44.642Z,0.90
2023-02-02T05:06:31.209Z,0.90
2023-02-02T05:09:17.739Z,0.90
2023-02-02T05:12:04.294Z,1.00
2023-02-02T05:14:50.778Z,1.00
2023-02-02T05:17:37.308Z,1.00
2023-02-02T05:20:23.845Z,1.10
2023-02-02T05:23:10.366Z,1.10
2023-02-02T05:25:56.922Z,1.10
2023-02-02T05:28:43.446Z,1.10
2023-02-02T05:31:30.030Z,1.10
2023-02-02T05:34:16.592Z,1.10
2023-02-02T05:37:03.127Z,1.20
2023-02-02T05:39:49.679Z,1.20
2023-02-02T05:42:36.204Z,1.20
2023-02-02T05:45:23.031Z,1.10
2023-02-02T05:48:09.763Z,1.10
2023-02-02T05:50:56.342Z,1.10
2023-02-02T05:53:42.861Z,1.00
2023-02-02T05:56:29.409Z,0.90
2023-02-02T05:59:15.943Z,0.90
2023-02-02T06:02:02.525Z,0.90
2023-02-02T06:04:49.061Z,0.90
2023-02-02T06:07:35.600Z,0.90
2023-02-02T06:10:22.082Z,0.90
2023-02-02T06:13:08.660Z,0.90
2023-02-02T06:15:55.217Z,0.80
2023-02-02T06:18:41.778Z,0.80
2023-02-02T06:21:28.303Z,0.80
2023-02-02T06:24:14.828Z,0.80
2023-02-02T06:27:01.408Z,0.80
2023-02-02T06:29:48.964Z,0.90
2023-02-02T06:32:35.514Z,0.80
2023-02-02T06:35:22.163Z,0.80
2023-02-02T06:38:08.978Z,0.80
2023-02-02T06:40:55.497Z,0.80
2023-02-02T06:43:42.030Z,0.80
2023-02-02T06:46:28.581Z,0.80
2023-02-02T06:49:15.128Z,0.80
2023-02-02T06:52:01.678Z,0.80
2023-02-02T06:54:48.320Z,0.80
2023-02-02T06:57:34.843Z,0.80
2023-02-02T07:00:21.373Z,0.80
2023-02-02T07:03:07.932Z,0.70
2023-02-02T07:05:54.647Z,0.80
2023-02-02T07:08:41.182Z,0.80
2023-02-02T07:11:27.739Z,0.80
2023-02-02T07:14:14.596Z,0.90
2023-02-02T07:17:01.139Z,0.90
2023-02-02T07:19:48.683Z,0.90
2023-02-02T07:22:35.238Z,0.90
2023-02-02T07:25:21.924Z,0.90
2023-02-02T07:28:08.598Z,0.90
2023-02-02T07:30:55.282Z,0.90
2023-02-02T07:33:42.117Z,0.90
2023-02-02T07:36:28.676Z,0.90
2023-02-02T07:39:15.210Z,0.90
2023-02-02T07:42:01.753Z,1.00
2023-02-02T07:44:48.294Z,1.00
2023-02-02T07:47:34.851Z,1.00
2023-02-02T07:50:21.339Z,1.00
2023-02-02T07:53:07.902Z,1.10
2023-02-02T07:55:54.437Z,1.10
2023-02-02T07:58:40.984Z,1.10
2023-02-02T08:01:28.669Z,1.20
2023-02-02T08:04:15.393Z,1.30
2023-02-02T08:07:02.032Z,1.30
2023-02-02T08:09:48.577Z,1.40
2023-02-02T08:12:35.099Z,1.40
2023-02-02T08:15:21.701Z,1.40
2023-02-02T08:18:08.233Z,1.40
2023-02-02T08:20:54.777Z,1.40
2023-02-02T08:23:41.313Z,1.40
2023-02-02T08:26:28.004Z,1.40
2023-02-02T08:29:14.565Z,1.40
2023-02-02T08:32:01.130Z,1.40
2023-02-02T08:34:47.995Z,1.40
2023-02-02T08:37:34.599Z,1.40
2023-02-02T08:40:21.181Z,1.40
2023-02-02T08:43:08.492Z,1.50
2023-02-02T08:46:03.434Z,1.40
2023-02-02T08:48:51.518Z,1.40
2023-02-02T08:51:38.067Z,1.40
2023-02-02T08:54:24.718Z,1.40
2023-02-02T08:57:11.386Z,1.40
2023-02-02T08:59:57.909Z,1.40
2023-02-02T09:02:44.460Z,1.40
2023-02-02T09:05:30.967Z,1.40
2023-02-02T09:08:17.681Z,1.50
2023-02-02T09:11:04.224Z,1.50
2023-02-02T09:13:50.803Z,1.40
2023-02-02T09:16:37.385Z,1.40
2023-02-02T09:19:24.960Z,1.40
2023-02-02T09:22:11.494Z,1.40
2023-02-02T09:24:58.016Z,1.40
2023-02-02T09:27:44.584Z,1.40
2023-02-02T09:30:31.108Z,1.50
2023-02-02T09:33:17.684Z,1.60
2023-02-02T09:36:04.264Z,1.60
2023-02-02T09:38:50.833Z,1.50
2023-02-02T09:41:37.422Z,1.50
2023-02-02T09:44:24.112Z,1.60
2023-02-02T09:47:12.819Z,1.70
2023-02-02T09:49:59.424Z,1.60
2023-02-02T09:52:46.706Z,1.70
2023-02-02T09:55:33.286Z,1.80
2023-02-02T09:58:19.813Z,1.80
2023-02-02T10:01:06.415Z,1.80
2023-02-02T10:03:52.979Z,1.80
2023-02-02T10:06:39.574Z,1.70
2023-02-02T10:09:26.220Z,1.70
2023-02-02T10:12:12.750Z,1.80
2023-02-02T10:14:59.292Z,1.80
2023-02-02T10:17:46.115Z,1.80
2023-02-02T10:20:32.651Z,1.80
2023-02-02T10:23:19.252Z,1.90
2023-02-02T10:26:05.770Z,1.90
2023-02-02T10:28:52.326Z,1.90
2023-02-02T10:31:38.935Z,2.00
2023-02-02T10:34:25.655Z,2.00
2023-02-02T10:37:12.171Z,2.00
2023-02-02T10:39:58.777Z,2.00
2023-02-02T10:42:45.429Z,2.00
2023-02-02T10:45:32.006Z,2.10
2023-02-02T10:48:18.548Z,2.00
2023-02-02T10:51:05.136Z,2.10
2023-02-02T10:53:51.673Z,2.10
2023-02-02T10:56:38.251Z,2.10
2023-02-02T10:59:24.932Z,2.10
2023-02-02T11:02:20.424Z,2.00
2023-02-02T11:05:07.748Z,2.00
2023-02-02T11:07:54.263Z,2.00
2023-02-02T11:10:40.787Z,2.00
2023-02-02T11:13:27.324Z,2.00
2023-02-02T11:16:13.964Z,2.10
2023-02-02T11:19:00.533Z,2.10
2023-02-02T11:21:47.059Z,2.10
2023-02-02T11:24:33.628Z,2.20
2023-02-02T11:27:20.167Z,2.20
2023-02-02T11:30:06.707Z,2.20
2023-02-02T11:32:53.279Z,2.20
2023-02-02T11:35:39.789Z,2.20
2023-02-02T11:38:26.373Z,2.10
2023-02-02T11:41:12.870Z,2.10
2023-02-02T11:43:59.426Z,2.10
2023-02-02T11:46:45.981Z,2.00
2023-02-02T11:49:32.540Z,2.00
2023-02-02T11:52:19.089Z,2.00
2023-02-02T11:55:05.599Z,2.00
2023-02-02T11:57:52.161Z,1.90
2023-02-02T12:00:38.643Z,1.90
2023-02-02T12:03:25.184Z,1.90
2023-02-02T12:06:11.711Z,1.80
2023-02-02T12:08:58.245Z,1.80
2023-02-02T12:11:44.803Z,1.90
2023-02-02T12:14:31.289Z,1.90
2023-02-02T12:17:17.839Z,1.90
2023-02-02T12:20:04.356Z,1.90
2023-02-02T12:22:50.925Z,1.90
2023-02-02T12:25:37.590Z,1.90
2023-02-02T12:28:24.152Z,1.90
2023-02-02T12:31:10.783Z,2.00
2023-02-02T12:33:57.481Z,1.90
2023-02-02T12:36:44.034Z,2.00
2023-02-02T12:39:30.573Z,2.00
2023-02-02T12:42:17.114Z,1.90
2023-02-02T12:45:03.613Z,1.80
2023-02-02T12:47:51.148Z,1.90
2023-02-02T12:50:37.664Z,1.90
2023-02-02T12:53:25.470Z,1.90
2023-02-02T12:56:12.012Z,1.90
2023-02-02T12:59:00.631Z,2.00
2023-02-02T13:01:47.180Z,1.90
2023-02-02T13:04:33.813Z,2.00
2023-02-02T13:07:20.340Z,1.90
2023-02-02T13:10:06.882Z,2.00
2023-02-02T13:12:53.406Z,1.90
2023-02-02T13:15:39.947Z,2.00
2023-02-02T13:18:26.566Z,2.00
2023-02-02T13:21:13.121Z,2.00
2023-02-02T13:23:59.784Z,2.00
2023-02-02T13:26:46.434Z,2.00
2023-02-02T13:29:33.064Z,2.00
2023-02-02T13:32:20.304Z,2.00
2023-02-02T13:35:06.827Z,2.00
2023-02-02T13:37:53.384Z,2.00
2023-02-02T13:40:39.878Z,1.90
2023-02-02T13:43:26.696Z,1.90
2023-02-02T13:46:13.283Z,2.00
2023-02-02T13:48:59.879Z,1.90
2023-02-02T13:51:46.408Z,1.90
2023-02-02T13:54:33.047Z,2.00
2023-02-02T13:57:19.682Z,2.00
2023-02-02T14:00:06.311Z,2.00
2023-02-02T14:02:52.868Z,2.00
2023-02-02T14:05:39.440Z,2.00
2023-02-02T14:08:25.976Z,2.00
2023-02-02T14:11:12.577Z,2.00
2023-02-02T14:14:00.120Z,2.00
2023-02-02T14:16:46.683Z,2.00
2023-02-02T14:19:33.230Z,1.90
2023-02-02T14:22:19.786Z,1.90
2023-02-02T14:38:55.058Z,1.90
2023-02-02T14:41:41.559Z,1.80
2023-02-02T14:44:28.062Z,1.90
2023-02-02T14:47:14.656Z,2.00
2023-02-02T14:50:01.167Z,2.00
2023-02-02T14:52:47.753Z,1.90
2023-02-02T14:55:34.279Z,1.90
2023-02-02T14:58:20.863Z,1.90
2023-02-02T15:01:07.475Z,1.80
2023-02-02T15:03:54.036Z,1.80
2023-02-02T15:06:40.541Z,1.80
2023-02-02T15:09:27.077Z,1.70
2023-02-02T15:12:13.574Z,1.70
2023-02-02T15:15:00.125Z,1.80
2023-02-02T15:17:46.650Z,1.70
2023-02-02T15:20:34.253Z,1.80
2023-02-02T15:23:20.769Z,1.70
2023-02-02T15:26:07.262Z,1.70
2023-02-02T15:28:53.757Z,1.70
2023-02-02T15:31:40.275Z,1.70
2023-02-02T15:34:26.789Z,1.70
2023-02-02T15:37:13.320Z,1.60
2023-02-02T15:39:59.824Z,1.60
2023-02-02T15:42:46.352Z,1.60
2023-02-02T15:45:33.024Z,1.60
2023-02-02T15:48:19.729Z,1.50
2023-02-02T15:51:06.230Z,1.50
2023-02-02T15:53:52.815Z,1.50
2023-02-02T15:56:39.352Z,1.50
2023-02-02T15:59:25.875Z,1.50
2023-02-02T16:02:12.418Z,1.50
2023-02-02T16:04:58.962Z,1.50
2023-02-02T16:07:53.178Z,1.50
2023-02-02T16:10:44.643Z,1.50
2023-02-02T16:13:32.287Z,1.50
2023-02-02T16:16:18.857Z,1.40
2023-02-02T16:19:05.466Z,1.40
2023-02-02T16:21:52.115Z,1.40
2023-02-02T16:24:38.645Z,1.30
2023-02-02T16:27:25.151Z,1.30
2023-02-02T16:30:11.695Z,1.30
2023-02-02T16:32:58.237Z,1.30
2023-02-02T16:35:44.890Z,1.20
2023-02-02T16:38:31.432Z,1.20
2023-02-02T16:41:17.985Z,1.20
2023-02-02T16:44:04.517Z,1.30
2023-02-02T16:46:51.097Z,1.20
2023-02-02T16:49:38.640Z,1.10
2023-02-02T16:52:25.176Z,1.10
2023-02-02T16:55:11.684Z,1.20
2023-02-02T16:57:58.221Z,1.10
2023-02-02T17:00:44.770Z,1.20
2023-02-02T17:03:31.321Z,1.20
2023-02-02T17:06:17.811Z,1.20
2023-02-02T17:09:04.310Z,1.20
2023-02-02T17:11:50.846Z,1.20
2023-02-02T17:14:37.399Z,1.20
2023-02-02T17:17:23.926Z,1.20
2023-02-02T17:20:10.488Z,1.20
2023-02-02T17:22:57.024Z,1.20
2023-02-02T17:25:43.601Z,1.10
2023-02-02T17:28:30.120Z,1.20
2023-02-02T17:31:16.843Z,1.10
2023-02-02T17:34:03.430Z,1.00
2023-02-02T17:36:49.972Z,1.00
2023-02-02T17:39:36.480Z,1.00
2023-02-02T17:42:24.009Z,1.00
2023-02-02T17:45:10.537Z,1.00
2023-02-02T17:47:57.023Z,1.00
2023-02-02T17:50:43.583Z,1.10
2023-02-02T17:53:31.675Z,1.10
2023-02-02T17:56:19.700Z,1.10
2023-02-02T17:59:06.246Z,1.10
2023-02-02T18:01:53.827Z,1.10
2023-02-02T18:04:40.398Z,1.10
2023-02-02T18:07:26.948Z,1.20
2023-02-02T18:10:13.490Z,1.10
2023-02-02T18:13:00.059Z,1.20
2023-02-02T18:15:46.640Z,1.10
2023-02-02T18:18:33.225Z,1.10
2023-02-02T18:21:19.747Z,1.10
2023-02-02T18:24:06.322Z,1.10
2023-02-02T18:26:52.884Z,1.00
2023-02-02T18:29:39.454Z,1.10
2023-02-02T18:32:25.974Z,1.10
2023-02-02T18:35:12.548Z,1.10
2023-02-02T18:37:59.088Z,1.20
2023-02-02T18:40:45.613Z,1.10
2023-02-02T18:43:32.116Z,1.20
2023-02-02T18:46:18.719Z,1.20
2023-02-02T18:49:05.408Z,1.20
2023-02-02T18:51:51.921Z,1.20
2023-02-02T18:54:38.460Z,1.20
2023-02-02T18:57:24.992Z,1.20
2023-02-02T19:00:11.500Z,1.20
2023-02-02T19:02:57.994Z,1.20
2023-02-02T19:05:44.505Z,1.20
2023-02-02T19:08:32.417Z,1.20
2023-02-02T19:11:20.179Z,1.30
2023-02-02T19:14:06.689Z,1.20
2023-02-02T19:16:53.232Z,1.20
2023-02-02T19:19:40.661Z,1.20
2023-02-02T19:22:27.196Z,1.30
2023-02-02T19:25:13.702Z,1.30
2023-02-02T19:28:00.252Z,1.20
2023-02-02T19:30:46.752Z,1.10
2023-02-02T19:33:33.306Z,1.10
2023-02-02T19:36:19.878Z,1.20
2023-02-02T19:39:06.417Z,1.20
2023-02-02T19:41:52.922Z,1.30
2023-02-02T19:44:39.444Z,1.20
2023-02-02T19:47:25.939Z,1.20
2023-02-02T19:50:12.437Z,1.20
2023-02-02T19:52:58.957Z,1.20
2023-02-02T19:55:45.435Z,1.20
2023-02-02T19:58:31.935Z,1.20
2023-02-02T20:01:18.524Z,1.20
2023-02-02T20:04:05.091Z,1.20
2023-02-02T20:06:59.211Z,1.20
2023-02-02T20:09:46.097Z,1.30
2023-02-02T20:12:32.634Z,1.20
2023-02-02T20:15:19.145Z,1.20
2023-02-02T20:18:05.660Z,1.20
2023-02-02T20:20:52.193Z,1.20
2023-02-02T20:23:38.738Z,1.20
2023-02-02T20:26:25.289Z,1.20
2023-02-02T20:29:12.835Z,1.20
2023-02-02T20:31:59.417Z,1.20
2023-02-02T20:34:45.921Z,1.20
2023-02-02T20:37:32.463Z,1.20
2023-02-02T20:40:18.987Z,1.20
2023-02-02T20:43:05.544Z,1.20
2023-02-02T20:45:52.097Z,1.20
2023-02-02T20:48:38.601Z,1.20
2023-02-02T20:51:25.115Z,1.20
2023-02-02T20:54:11.774Z,1.20
2023-02-02T20:56:58.317Z,1.20
2023-02-02T20:59:44.798Z,1.20
2023-02-02T21:02:31.360Z,1.20
2023-02-02T21:05:17.917Z,1.20
2023-02-02T21:08:04.455Z,1.30
2023-02-02T21:10:50.961Z,1.20
2023-02-02T21:13:37.503Z,1.20
2023-02-02T21:16:24.040Z,1.30
2023-02-02T21:19:10.645Z,1.20
2023-02-02T21:21:57.175Z,1.30
2023-02-02T21:24:43.737Z,1.30
2023-02-02T21:27:31.368Z,1.20
2023-02-02T21:30:17.939Z,1.20
2023-02-02T21:33:04.473Z,1.20
2023-02-02T21:35:50.999Z,1.30
2023-02-02T21:38:37.488Z,1.30
2023-02-02T21:41:23.997Z,1.30
2023-02-02T21:44:10.509Z,1.30
2023-02-02T21:46:57.066Z,1.30
2023-02-02T21:49:43.549Z,1.30
2023-02-02T21:52:30.100Z,1.30
2023-02-02T21:55:16.625Z,1.30
2023-02-02T21:58:03.153Z,1.20
2023-02-02T22:00:49.707Z,1.30
2023-02-02T22:03:36.277Z,1.30
2023-02-02T22:06:22.827Z,1.30
2023-02-02T22:09:09.388Z,1.30
2023-02-02T22:11:55.965Z,1.30
2023-02-02T22:14:42.454Z,1.30
2023-02-02T22:17:29.016Z,1.30
2023-02-02T22:20:15.588Z,1.30
2023-02-02T22:23:02.239Z,1.30
2023-02-02T22:25:48.765Z,1.30
2023-02-02T22:28:35.325Z,1.30
2023-02-02T22:31:21.902Z,1.30
2023-02-02T22:34:09.457Z,1.30
2023-02-02T22:36:55.941Z,1.30
2023-02-02T22:39:42.478Z,1.30
2023-02-02T22:42:29.037Z,1.30
2023-02-02T22:45:15.572Z,1.30
2023-02-02T22:48:02.122Z,1.30
2023-02-02T22:50:48.644Z,1.20
2023-02-02T22:53:36.180Z,1.20
2023-02-02T22:56:22.670Z,1.20
2023-02-02T22:59:09.225Z,1.30
2023-02-02T23:01:55.741Z,1.20
2023-02-02T23:04:42.294Z,1.20
2023-02-02T23:07:28.785Z,1.10
2023-02-02T23:10:15.310Z,1.20
2023-02-02T23:13:01.835Z,1.10
2023-02-02T23:15:48.443Z,1.10
2023-02-02T23:18:34.964Z,1.10
2023-02-02T23:21:21.519Z,1.20
2023-02-02T23:24:08.002Z,1.20
2023-02-02T23:26:54.554Z,1.20
2023-02-02T23:29:41.067Z,1.20
2023-02-02T23:32:27.614Z,1.20
2023-02-02T23:35:14.138Z,1.20
2023-02-02T23:38:00.642Z,1.20
2023-02-02T23:40:48.169Z,1.20
2023-02-02T23:43:34.723Z,1.20
2023-02-02T23:46:21.256Z,1.20
2023-02-02T23:49:07.834Z,1.20
2023-02-02T23:51:54.367Z,1.30
2023-02-02T23:54:40.909Z,1.20
2023-02-02T23:57:27.380Z,1.20
